createdAt,value
2018-02-19T00:01:32.763Z,78.40
2018-02-19T00:04:00.253Z,76.60
2018-02-19T00:06:30.756Z,77.10
2018-02-19T00:08:58.796Z,78.00
2018-02-19T00:11:26.314Z,77.50
2018-02-19T00:13:53.815Z,76.80
2018-02-19T00:16:21.300Z,77.20
2018-02-19T00:18:48.780Z,77.80
2018-02-19T00:21:16.257Z,78.80
2018-02-19T00:23:43.803Z,78.90
2018-02-19T00:26:11.287Z,78.80
2018-02-19T00:28:38.763Z,78.20
2018-02-19T00:31:07.028Z,78.50
2018-02-19T00:33:34.515Z,78.50
2018-02-19T00:36:02.022Z,78.40
2018-02-19T00:38:29.498Z,77.70
2018-02-19T00:40:56.991Z,77.90
2018-02-19T00:43:24.474Z,77.80
2018-02-19T00:45:52.772Z,78.10
2018-02-19T00:48:20.252Z,78.00
2018-02-19T00:50:47.756Z,78.80
2018-02-19T00:53:16.009Z,78.40
2018-02-19T00:55:43.521Z,78.40
2018-02-19T00:58:11.007Z,78.20
2018-02-19T01:00:38.502Z,78.60
2018-02-19T01:03:05.982Z,77.80
2018-02-19T01:05:34.251Z,77.30
2018-02-19T01:08:01.765Z,77.20
2018-02-19T01:10:29.253Z,77.70
2018-02-19T01:12:56.727Z,77.70
2018-02-19T01:15:24.993Z,76.60
2018-02-19T01:17:53.256Z,77.20
2018-02-19T01:20:20.752Z,77.20
2018-02-19T01:22:48.224Z,77.70
2018-02-19T01:25:15.717Z,77.70
2018-02-19T01:27:43.200Z,77.80
2018-02-19T01:30:10.691Z,78.00
2018-02-19T01:32:38.187Z,77.90
2018-02-19T01:35:05.700Z,77.70
2018-02-19T01:37:33.950Z,78.90
2018-02-19T01:40:01.439Z,79.60
2018-02-19T01:42:28.915Z,77.60
2018-02-19T01:44:56.394Z,77.40
2018-02-19T01:47:23.875Z,77.30
2018-02-19T01:50:03.283Z,77.90
2018-02-19T01:52:30.777Z,78.60
2018-02-19T01:54:59.043Z,78.40
2018-02-19T01:57:26.538Z,78.30
2018-02-19T01:59:54.019Z,79.30
2018-02-19T02:02:21.715Z,78.90
2018-02-19T02:04:49.186Z,79.00
2018-02-19T02:07:16.683Z,79.10
2018-02-19T02:09:44.179Z,79.50
2018-02-19T02:12:11.668Z,79.50
2018-02-19T02:14:39.145Z,79.00
2018-02-19T02:17:06.639Z,79.20
2018-02-19T02:19:34.123Z,79.10
2018-02-19T02:22:01.613Z,78.70
2018-02-19T02:24:29.096Z,79.10
2018-02-19T02:26:56.603Z,78.30
2018-02-19T02:29:24.077Z,78.20
2018-02-19T02:31:52.331Z,78.20
2018-02-19T02:34:19.819Z,78.20
2018-02-19T02:36:48.081Z,79.20
2018-02-19T02:39:15.606Z,79.20
2018-02-19T02:41:43.095Z,80.10
2018-02-19T02:44:10.571Z,79.40
2018-02-19T02:46:39.772Z,78.60
2018-02-19T02:49:08.018Z,78.50
2018-02-19T02:51:35.540Z,78.50
2018-02-19T02:54:03.031Z,78.10
2018-02-19T02:56:30.506Z,77.80
2018-02-19T02:58:58.001Z,79.10
2018-02-19T03:01:25.490Z,78.20
2018-02-19T03:03:52.987Z,77.00
2018-02-19T03:06:21.266Z,78.80
2018-02-19T03:08:49.534Z,79.70
2018-02-19T03:11:17.018Z,79.60
2018-02-19T03:13:44.525Z,79.40
2018-02-19T03:16:11.995Z,79.40
2018-02-19T03:18:39.482Z,80.10
2018-02-19T03:21:07.721Z,80.40
2018-02-19T03:23:35.214Z,80.40
2018-02-19T03:26:03.472Z,80.50
2018-02-19T03:28:30.966Z,80.40
2018-02-19T03:30:58.481Z,80.20
2018-02-19T03:33:26.011Z,80.70
2018-02-19T03:35:53.491Z,80.70
2018-02-19T03:38:21.003Z,80.90
2018-02-19T03:40:48.508Z,80.80
2018-02-19T03:43:16.028Z,81.00
2018-02-19T03:45:43.522Z,81.20
2018-02-19T03:48:11.005Z,81.40
2018-02-19T03:50:39.270Z,81.10
2018-02-19T03:53:06.761Z,81.10
2018-02-19T03:55:34.261Z,81.00
2018-02-19T03:58:01.769Z,81.10
2018-02-19T04:00:30.016Z,81.50
2018-02-19T04:02:57.510Z,81.50
2018-02-19T04:05:25.781Z,80.10
2018-02-19T04:07:54.021Z,80.30
2018-02-19T04:10:21.516Z,80.30
2018-02-19T04:12:49.770Z,81.30
2018-02-19T04:15:17.258Z,81.20
2018-02-19T04:17:44.777Z,81.30
2018-02-19T04:20:12.246Z,81.60
2018-02-19T04:22:39.731Z,81.80
2018-02-19T04:25:07.225Z,81.50
2018-02-19T04:27:34.700Z,82.00
2018-02-19T04:30:02.189Z,81.40
2018-02-19T04:32:30.451Z,80.90
2018-02-19T04:34:58.715Z,81.30
2018-02-19T04:37:26.213Z,80.90
2018-02-19T04:39:54.464Z,80.80
2018-02-19T04:42:21.954Z,80.80
2018-02-19T04:44:51.249Z,81.80
2018-02-19T04:47:18.729Z,80.90
2018-02-19T04:49:46.235Z,80.80
2018-02-19T04:52:13.713Z,80.80
2018-02-19T04:54:41.973Z,81.00
2018-02-19T04:57:09.467Z,81.00
2018-02-19T04:59:36.978Z,81.70
2018-02-19T05:02:04.463Z,81.10
2018-02-19T05:04:32.715Z,79.20
2018-02-19T05:07:00.190Z,79.10
2018-02-19T05:09:28.457Z,77.70
2018-02-19T05:11:55.923Z,77.70
2018-02-19T05:14:24.189Z,78.60
2018-02-19T05:16:51.663Z,78.50
2018-02-19T05:19:19.905Z,78.80
2018-02-19T05:21:47.392Z,78.70
2018-02-19T05:24:15.630Z,79.30
2018-02-19T05:26:43.124Z,79.30
2018-02-19T05:29:11.389Z,79.00
2018-02-19T05:31:38.872Z,79.00
2018-02-19T05:34:06.375Z,77.60
2018-02-19T05:36:33.868Z,78.10
2018-02-19T05:39:01.349Z,79.20
2018-02-19T05:41:38.772Z,78.60
2018-02-19T05:44:06.218Z,78.90
2018-02-19T05:46:33.745Z,78.80
2018-02-19T05:49:01.976Z,78.90
2018-02-19T05:51:29.502Z,78.90
2018-02-19T05:53:56.989Z,78.70
2018-02-19T05:56:24.548Z,78.80
2018-02-19T05:58:52.011Z,79.30
2018-02-19T06:01:19.902Z,79.60
2018-02-19T06:03:47.362Z,79.70
2018-02-19T06:06:14.832Z,79.10
2018-02-19T06:08:43.067Z,79.30
2018-02-19T06:11:10.658Z,79.20
2018-02-19T06:13:38.252Z,77.80
2018-02-19T06:16:05.791Z,78.10
2018-02-19T06:18:34.271Z,79.70
2018-02-19T06:21:02.546Z,79.00
2018-02-19T06:23:30.024Z,78.90
2018-02-19T06:25:57.503Z,76.60
2018-02-19T06:28:24.998Z,76.30
2018-02-19T06:30:52.471Z,77.30
2018-02-19T06:33:19.924Z,77.10
2018-02-19T06:35:47.390Z,76.60
2018-02-19T06:38:15.611Z,77.10
2018-02-19T06:40:43.082Z,76.90
2018-02-19T06:43:10.546Z,77.00
2018-02-19T06:45:38.018Z,76.00
2018-02-19T06:48:05.489Z,76.20
2018-02-19T06:50:32.959Z,76.80
2018-02-19T06:53:01.189Z,76.20
2018-02-19T06:55:28.657Z,76.20
2018-02-19T06:57:56.130Z,76.40
2018-02-19T07:00:23.598Z,75.60
2018-02-19T07:02:51.064Z,73.80
2018-02-19T07:05:19.287Z,74.00
2018-02-19T07:07:46.751Z,73.90
2018-02-19T07:10:14.286Z,74.40
2018-02-19T07:12:41.754Z,74.20
2018-02-19T07:15:09.216Z,74.60
2018-02-19T07:17:36.701Z,74.70
2018-02-19T07:20:04.161Z,75.10
2018-02-19T07:22:31.648Z,75.60
2018-02-19T07:24:59.115Z,75.20
2018-02-19T07:27:26.592Z,74.20
2018-02-19T07:29:54.056Z,74.20
2018-02-19T07:32:21.516Z,74.60
2018-02-19T07:34:48.977Z,74.90
2018-02-19T07:37:16.444Z,75.00
2018-02-19T07:39:43.901Z,73.20
2018-02-19T07:42:11.365Z,71.80
2018-02-19T07:44:38.819Z,72.20
2018-02-19T07:47:06.300Z,73.70
2018-02-19T07:49:33.760Z,73.80
2018-02-19T07:52:01.217Z,73.20
2018-02-19T07:54:28.683Z,72.20
2018-02-19T07:56:56.916Z,71.20
2018-02-19T07:59:24.388Z,71.20
2018-02-19T08:01:51.858Z,70.70
2018-02-19T08:04:19.331Z,71.60
2018-02-19T08:06:47.571Z,73.10
2018-02-19T08:09:15.040Z,73.00
2018-02-19T08:11:42.503Z,71.50
2018-02-19T08:14:09.984Z,71.40
2018-02-19T08:16:37.436Z,71.50
2018-02-19T08:19:04.908Z,72.80
2018-02-19T08:21:33.136Z,71.00
2018-02-19T08:24:00.607Z,70.90
2018-02-19T08:26:28.078Z,70.90
2018-02-19T08:28:55.553Z,71.40
2018-02-19T08:31:23.008Z,71.30
2018-02-19T08:33:50.480Z,70.90
2018-02-19T08:36:17.931Z,71.00
2018-02-19T08:38:46.163Z,69.10
2018-02-19T08:41:13.615Z,69.00
2018-02-19T08:43:41.085Z,70.00
2018-02-19T08:46:08.550Z,70.00
2018-02-19T08:48:36.015Z,70.40
2018-02-19T08:51:03.481Z,69.80
2018-02-19T08:53:31.735Z,70.90
2018-02-19T08:55:59.193Z,70.90
2018-02-19T08:58:26.677Z,70.40
2018-02-19T09:00:54.924Z,69.70
2018-02-19T09:03:22.412Z,69.70
2018-02-19T09:05:50.653Z,67.50
2018-02-19T09:08:18.105Z,67.50
2018-02-19T09:10:45.776Z,64.80
2018-02-19T09:13:13.240Z,63.50
2018-02-19T09:15:40.732Z,64.00
2018-02-19T09:18:08.187Z,64.40
2018-02-19T09:20:36.420Z,65.70
2018-02-19T09:23:03.877Z,65.60
2018-02-19T09:25:31.345Z,65.80
2018-02-19T09:27:58.834Z,66.00
2018-02-19T09:30:27.060Z,64.00
2018-02-19T09:32:55.293Z,64.30
2018-02-19T09:35:22.763Z,64.30
2018-02-19T09:37:50.214Z,66.00
2018-02-19T09:40:17.694Z,65.20
2018-02-19T09:42:45.154Z,63.40
2018-02-19T09:45:12.623Z,61.90
2018-02-19T09:47:40.079Z,62.60
2018-02-19T09:50:07.549Z,63.80
2018-02-19T09:52:35.010Z,63.50
2018-02-19T09:55:02.485Z,62.70
2018-02-19T09:57:30.719Z,62.70
2018-02-19T09:59:58.172Z,61.90
2018-02-19T10:02:25.631Z,61.20
2018-02-19T10:04:53.109Z,60.50
2018-02-19T10:07:20.577Z,59.50
2018-02-19T10:09:48.069Z,60.50
2018-02-19T10:12:16.306Z,60.80
2018-02-19T10:14:43.759Z,60.80
2018-02-19T10:17:11.238Z,59.60
2018-02-19T10:19:38.747Z,59.40
2018-02-19T10:22:06.225Z,60.80
2018-02-19T10:24:33.726Z,59.50
2018-02-19T10:27:01.980Z,58.70
2018-02-19T10:29:29.475Z,58.50
2018-02-19T10:31:56.967Z,59.40
2018-02-19T10:34:24.474Z,61.20
2018-02-19T10:36:51.996Z,61.80
2018-02-19T10:39:19.497Z,60.40
2018-02-19T10:41:47.758Z,58.00
2018-02-19T10:44:16.033Z,57.40
2018-02-19T10:46:44.294Z,57.80
2018-02-19T10:49:11.794Z,57.70
2018-02-19T10:51:39.280Z,56.30
2018-02-19T10:54:06.772Z,56.90
2018-02-19T10:56:34.280Z,55.70
2018-02-19T10:59:01.765Z,56.30
2018-02-19T11:01:29.282Z,55.80
2018-02-19T11:03:56.812Z,55.00
2018-02-19T11:06:24.324Z,53.70
2018-02-19T11:08:51.846Z,53.50
2018-02-19T11:11:20.096Z,55.20
2018-02-19T11:13:47.602Z,55.10
2018-02-19T11:16:15.134Z,55.80
2018-02-19T11:18:43.380Z,56.00
2018-02-19T11:21:10.851Z,55.90
2018-02-19T11:23:38.342Z,54.60
2018-02-19T11:26:06.637Z,55.20
2018-02-19T11:28:34.118Z,55.10
2018-02-19T11:31:01.698Z,52.90
2018-02-19T11:33:29.173Z,53.10
2018-02-19T11:35:56.641Z,51.30
2018-02-19T11:38:24.913Z,54.80
2018-02-19T11:40:53.168Z,55.50
2018-02-19T11:43:20.638Z,55.40
2018-02-19T11:45:48.087Z,56.30
2018-02-19T11:48:15.580Z,56.20
2018-02-19T11:50:43.032Z,55.10
2018-02-19T11:53:11.268Z,56.00
2018-02-19T11:55:38.848Z,56.00
2018-02-19T11:58:06.341Z,53.80
2018-02-19T12:00:33.805Z,55.70
2018-02-19T12:03:01.292Z,55.30
2018-02-19T12:05:28.761Z,56.30
2018-02-19T12:07:56.852Z,55.20
2018-02-19T12:10:24.324Z,54.00
2018-02-19T12:12:52.556Z,54.90
2018-02-19T12:15:20.018Z,54.90
2018-02-19T12:17:47.496Z,55.20
2018-02-19T12:20:14.943Z,54.00
2018-02-19T12:22:42.565Z,56.80
2018-02-19T12:25:10.858Z,55.20
2018-02-19T12:27:38.340Z,55.20
2018-02-19T12:30:05.833Z,53.30
2018-02-19T12:32:34.073Z,53.80
2018-02-19T12:35:14.489Z,53.80
2018-02-19T12:37:42.030Z,53.00
2018-02-19T12:40:09.496Z,55.40
2018-02-19T12:42:36.951Z,55.10
2018-02-19T12:45:04.421Z,54.40
2018-02-19T12:47:31.891Z,54.50
2018-02-19T12:49:59.510Z,54.60
2018-02-19T12:52:27.751Z,53.10
2018-02-19T12:54:55.216Z,53.10
2018-02-19T12:57:22.679Z,51.00
2018-02-19T12:59:50.165Z,53.20
2018-02-19T13:02:18.664Z,53.70
2018-02-19T13:04:46.197Z,53.60
2018-02-19T13:07:13.716Z,53.30
2018-02-19T13:09:41.262Z,54.70
2018-02-19T13:12:08.855Z,54.80
2018-02-19T13:14:36.335Z,54.30
2018-02-19T13:17:04.555Z,54.30
2018-02-19T13:19:32.028Z,54.20
2018-02-19T13:21:59.495Z,55.10
2018-02-19T13:24:26.972Z,54.50
2018-02-19T13:26:54.430Z,53.70
2018-02-19T13:29:21.900Z,54.70
2018-02-19T13:31:50.123Z,54.20
2018-02-19T13:34:17.588Z,54.10
2018-02-19T13:36:45.044Z,52.60
2018-02-19T13:39:12.516Z,53.70
2018-02-19T13:41:39.980Z,54.60
2018-02-19T13:44:07.452Z,55.30
2018-02-19T13:46:34.916Z,52.40
2018-02-19T13:49:03.148Z,53.00
2018-02-19T13:51:31.374Z,53.50
2018-02-19T13:53:59.608Z,54.70
2018-02-19T13:56:27.065Z,54.50
2018-02-19T13:58:54.523Z,53.10
2018-02-19T14:01:21.979Z,54.40
2018-02-19T14:03:49.443Z,52.20
2018-02-19T14:06:16.916Z,51.90
2018-02-19T14:08:44.401Z,53.00
2018-02-19T14:11:11.864Z,54.20
2018-02-19T14:13:39.333Z,56.10
2018-02-19T14:16:06.813Z,56.50
2018-02-19T14:18:34.282Z,55.90
2018-02-19T14:21:01.781Z,55.40
2018-02-19T14:23:30.028Z,54.70
2018-02-19T14:25:57.495Z,54.70
2018-02-19T14:28:25.068Z,56.20
2018-02-19T14:30:53.725Z,55.60
2018-02-19T14:33:21.180Z,55.60
2018-02-19T14:35:48.758Z,56.20
2018-02-19T14:38:16.276Z,55.00
2018-02-19T14:40:43.769Z,52.90
2018-02-19T14:43:11.240Z,55.40
2018-02-19T14:45:39.490Z,56.30
2018-02-19T14:48:06.971Z,56.30
2018-02-19T14:50:36.043Z,55.40
2018-02-19T14:53:03.604Z,55.30
2018-02-19T14:55:31.112Z,56.90
2018-02-19T14:57:58.586Z,55.50
2018-02-19T15:00:26.068Z,55.60
2018-02-19T15:02:53.526Z,57.40
2018-02-19T15:05:21.030Z,57.00
2018-02-19T15:07:49.285Z,56.10
2018-02-19T15:10:16.769Z,56.10
2018-02-19T15:12:44.997Z,56.00
2018-02-19T15:15:12.484Z,55.90
2018-02-19T15:17:39.966Z,56.60
2018-02-19T15:20:07.449Z,56.20
2018-02-19T15:22:34.930Z,56.20
2018-02-19T15:25:02.415Z,58.40
2018-02-19T15:27:29.884Z,57.90
2018-02-19T15:29:58.124Z,56.60
2018-02-19T15:32:25.622Z,56.70
2018-02-19T15:34:53.986Z,57.70
2018-02-19T15:37:22.249Z,57.20
2018-02-19T15:39:49.797Z,57.70
2018-02-19T15:42:18.088Z,57.20
2018-02-19T15:44:45.569Z,57.20
2018-02-19T15:47:13.874Z,56.50
2018-02-19T15:49:41.361Z,56.40
2018-02-19T15:52:08.863Z,56.70
2018-02-19T15:54:36.336Z,56.20
2018-02-19T15:57:03.837Z,56.60
2018-02-19T15:59:31.302Z,57.40
2018-02-19T16:01:58.812Z,57.70
2018-02-19T16:04:26.318Z,57.30
2018-02-19T16:06:53.797Z,57.50
2018-02-19T16:09:22.032Z,58.40
2018-02-19T16:11:49.533Z,57.80
2018-02-19T16:14:17.785Z,57.90
2018-02-19T16:16:45.297Z,57.90
2018-02-19T16:19:12.776Z,57.30
2018-02-19T16:21:40.238Z,57.40
2018-02-19T16:24:07.709Z,56.80
2018-02-19T16:26:35.224Z,57.00
2018-02-19T16:29:03.599Z,57.60
2018-02-19T16:31:31.116Z,57.50
2018-02-19T16:33:58.639Z,57.50
2018-02-19T16:36:26.579Z,58.60
2018-02-19T16:38:55.010Z,58.00
2018-02-19T16:41:22.621Z,57.90
2018-02-19T16:43:50.157Z,57.90
2018-02-19T16:46:17.749Z,57.90
2018-02-19T16:48:45.439Z,58.70
2018-02-19T16:51:12.967Z,58.50
2018-02-19T16:53:41.884Z,58.30
2018-02-19T16:56:09.506Z,58.80
2018-02-19T16:58:37.923Z,58.60
2018-02-19T17:01:05.510Z,58.50
2018-02-19T17:03:33.262Z,59.00
2018-02-19T17:06:01.180Z,58.80
2018-02-19T17:08:29.501Z,60.40
2018-02-19T17:10:57.070Z,60.30
2018-02-19T17:13:24.938Z,61.30
2018-02-19T17:15:52.421Z,63.20
2018-02-19T17:18:19.936Z,64.00
2018-02-19T17:20:47.409Z,62.60
2018-02-19T17:23:15.885Z,60.00
2018-02-19T17:25:44.085Z,59.40
2018-02-19T17:28:12.262Z,61.00
2018-02-19T17:30:39.902Z,59.10
2018-02-19T17:33:07.458Z,60.60
2018-02-19T17:35:35.307Z,60.40
2018-02-19T17:38:03.366Z,61.80
2018-02-19T17:40:30.860Z,60.90
2018-02-19T17:42:58.904Z,60.60
2018-02-19T17:45:26.725Z,61.50
2018-02-19T17:47:54.274Z,60.90
2018-02-19T17:50:22.001Z,60.40
2018-02-19T17:52:49.602Z,59.20
2018-02-19T17:55:17.101Z,61.10
2018-02-19T17:57:44.618Z,62.60
2018-02-19T18:00:12.184Z,62.90
2018-02-19T18:02:39.714Z,63.40
2018-02-19T18:05:07.274Z,63.30
2018-02-19T18:07:34.858Z,63.40
2018-02-19T18:10:02.399Z,62.00
2018-02-19T18:12:29.917Z,62.50
2018-02-19T18:14:57.475Z,62.80
2018-02-19T18:17:25.027Z,61.90
2018-02-19T18:19:52.585Z,62.00
2018-02-19T18:22:20.883Z,63.00
2018-02-19T18:24:48.443Z,63.00
2018-02-19T18:27:15.966Z,62.80
2018-02-19T18:29:44.324Z,61.60
2018-02-19T18:32:11.994Z,61.50
2018-02-19T18:34:39.578Z,62.60
2018-02-19T18:37:07.395Z,64.00
2018-02-19T18:39:35.082Z,64.30
2018-02-19T18:42:02.638Z,65.60
2018-02-19T18:44:30.163Z,65.50
2018-02-19T18:46:58.712Z,65.40
2018-02-19T18:49:26.602Z,65.40
2018-02-19T18:51:54.192Z,65.00
2018-02-19T18:54:21.785Z,66.20
2018-02-19T18:56:50.313Z,68.00
2018-02-19T18:59:17.840Z,68.00
2018-02-19T19:01:46.136Z,69.20
2018-02-19T19:04:13.764Z,69.10
2018-02-19T19:06:42.079Z,68.00
2018-02-19T19:09:21.447Z,68.00
2018-02-19T19:11:48.988Z,67.10
2018-02-19T19:14:16.539Z,68.10
2018-02-19T19:16:44.079Z,68.80
2018-02-19T19:19:11.794Z,69.70
2018-02-19T19:21:39.375Z,70.30
2018-02-19T19:24:06.899Z,70.10
2018-02-19T19:26:34.439Z,69.60
2018-02-19T19:29:01.990Z,69.50
2018-02-19T19:31:29.512Z,68.70
2018-02-19T19:33:57.962Z,69.70
2018-02-19T19:36:25.538Z,69.70
2018-02-19T19:38:53.327Z,70.50
2018-02-19T19:41:21.731Z,70.40
2018-02-19T19:43:49.281Z,70.30
2018-02-19T19:46:16.817Z,70.60
2018-02-19T19:48:45.129Z,71.60
2018-02-19T19:51:12.656Z,71.50
2018-02-19T19:53:41.032Z,71.70
2018-02-19T19:56:08.556Z,71.60
2018-02-19T19:58:36.053Z,72.00
2018-02-19T20:01:04.391Z,71.50
2018-02-19T20:03:32.085Z,71.60
2018-02-19T20:05:59.694Z,71.70
2018-02-19T20:08:27.335Z,71.00
2018-02-19T20:10:54.844Z,71.00
2018-02-19T20:13:22.368Z,71.20
2018-02-19T20:15:49.862Z,71.50
2018-02-19T20:18:18.549Z,71.60
2018-02-19T20:20:46.046Z,71.80
2018-02-19T20:23:14.313Z,71.40
2018-02-19T20:25:42.556Z,71.60
2018-02-19T20:28:10.222Z,71.50
2018-02-19T20:30:38.643Z,70.60
2018-02-19T20:33:06.977Z,71.10
2018-02-19T20:35:34.618Z,71.10
2018-02-19T20:38:02.210Z,70.90
2018-02-19T20:40:29.742Z,70.90
2018-02-19T20:42:57.317Z,71.70
2018-02-19T20:45:24.898Z,70.70
2018-02-19T20:47:52.440Z,71.50
2018-02-19T20:52:54.455Z,72.20
2018-02-19T20:55:24.657Z,71.50
2018-02-19T20:57:52.323Z,71.40
2018-02-19T21:00:20.135Z,71.60
2018-02-19T21:02:53.800Z,70.60
2018-02-19T21:05:22.188Z,70.60
2018-02-19T21:07:49.752Z,70.60
2018-02-19T21:10:18.447Z,70.80
2018-02-19T21:12:47.328Z,70.80
2018-02-19T21:15:14.908Z,70.00
2018-02-19T21:17:42.841Z,70.00
2018-02-19T21:20:10.635Z,69.70
2018-02-19T21:22:38.424Z,70.90
2018-02-19T21:25:06.360Z,71.40
2018-02-19T21:27:34.052Z,71.30
2018-02-19T21:30:01.712Z,70.80
2018-02-19T21:32:29.684Z,71.50
2018-02-19T21:34:57.822Z,72.20
2018-02-19T21:37:25.381Z,71.90
2018-02-19T21:39:54.134Z,72.80
2018-02-19T21:42:21.715Z,72.50
2018-02-19T21:44:50.621Z,72.80
2018-02-19T21:47:18.931Z,73.20
2018-02-19T21:49:46.589Z,73.10
2018-02-19T21:52:14.133Z,73.90
2018-02-19T21:54:41.690Z,74.30
2018-02-19T21:57:09.551Z,74.00
2018-02-19T21:59:37.257Z,74.20
2018-02-19T22:02:04.946Z,73.30
2018-02-19T22:04:32.726Z,73.40
2018-02-19T22:07:01.009Z,72.20
2018-02-19T22:09:28.697Z,72.10
2018-02-19T22:11:56.414Z,72.10
2018-02-19T22:14:23.949Z,71.90
2018-02-19T22:16:51.678Z,72.10
2018-02-19T22:19:19.285Z,72.50
2018-02-19T22:21:46.992Z,72.90
2018-02-19T22:24:14.735Z,73.20
2018-02-19T22:26:42.432Z,73.40
2018-02-19T22:29:09.994Z,73.80
2018-02-19T22:31:37.518Z,74.00
2018-02-19T22:34:05.900Z,73.60
2018-02-19T22:36:34.271Z,73.80
2018-02-19T22:39:01.829Z,73.80
2018-02-19T22:41:29.361Z,74.70
2018-02-19T22:43:57.020Z,74.30
2018-02-19T22:46:24.579Z,74.20
2018-02-19T22:48:52.126Z,74.50
2018-02-19T22:51:19.744Z,74.30
2018-02-19T22:53:47.270Z,74.60
2018-02-19T22:56:14.848Z,75.10
2018-02-19T22:58:42.498Z,74.70
2018-02-19T23:01:10.082Z,74.20
2018-02-19T23:03:38.393Z,73.50
2018-02-19T23:06:05.940Z,73.40
2018-02-19T23:08:33.484Z,73.30
2018-02-19T23:11:01.204Z,72.80
2018-02-19T23:13:28.752Z,72.40
2018-02-19T23:15:56.407Z,72.90
2018-02-19T23:18:24.011Z,72.60
2018-02-19T23:20:51.740Z,73.00
2018-02-19T23:23:19.380Z,73.30
2018-02-19T23:25:46.978Z,72.90
2018-02-19T23:28:14.530Z,73.10
2018-02-19T23:30:42.166Z,73.30
2018-02-19T23:33:09.727Z,73.60
2018-02-19T23:35:37.362Z,74.60
2018-02-19T23:38:05.673Z,74.10
2018-02-19T23:40:33.226Z,74.00
2018-02-19T23:43:00.770Z,74.40
2018-02-19T23:45:28.434Z,74.80
2018-02-19T23:47:56.098Z,75.00
2018-02-19T23:50:23.685Z,74.60
2018-02-19T23:52:51.382Z,74.50
2018-02-19T23:55:18.931Z,74.30
2018-02-19T23:57:46.462Z,74.00
